Time;durP1;ratioP1;P1;durP2;ratioP2;P2;SDS_P1;SDS_P2;PMS_P1;PMS_P2;Temp;Humidity;BMP_temperature;BMP_pressure;BME280_temperature;BME280_humidity;BME280_pressure;Samples;Min_cycle;Max_cycle;Signal;HPM_P1;HPM_P2
2023/10/01 00:02:32;;;;;;;11.02;6.82;;;;;;;;;;4803482;29;20070;-81
2023/10/01 00:05:21;;;;;;;10.98;6.63;;;;;;;;;;4810416;29;20050;-80
2023/10/01 00:08:12;;;;;;;14.07;6.80;;;;;;;;;;4809189;29;20050;-83
2023/10/01 00:10:57;;;;;;;14.15;7.85;;;;;;;;;;4807661;29;20050;-84
2023/10/01 00:13:43;;;;;;;18.30;7.40;;;;;;;;;;4810546;29;20467;-81
2023/10/01 00:16:29;;;;;;;12.15;6.88;;;;;;;;;;4805886;29;20050;-81
2023/10/01 00:19:17;;;;;;;9.68;6.68;;;;;;;;;;4810095;29;20054;-84
2023/10/01 00:22:02;;;;;;;12.68;6.95;;;;;;;;;;4805686;29;20058;-81
2023/10/01 00:24:48;;;;;;;16.50;7.72;;;;;;;;;;4806747;29;20467;-81
2023/10/01 00:27:33;;;;;;;14.82;8.45;;;;;;;;;;4807535;29;20479;-81
2023/10/01 00:30:20;;;;;;;16.00;8.77;;;;;;;;;;4808413;29;20062;-80
2023/10/01 00:33:10;;;;;;;15.75;8.48;;;;;;;;;;4809420;29;20470;-81
2023/10/01 00:35:56;;;;;;;19.10;8.07;;;;;;;;;;4816323;29;20050;-82
2023/10/01 00:38:41;;;;;;;18.90;8.93;;;;;;;;;;4815505;29;20050;-81
2023/10/01 00:41:28;;;;;;;14.07;9.32;;;;;;;;;;4807868;29;20427;-80
2023/10/01 00:44:13;;;;;;;20.88;8.88;;;;;;;;;;4807333;29;20459;-80
2023/10/01 00:46:59;;;;;;;16.63;8.98;;;;;;;;;;4811902;29;20406;-82
2023/10/01 00:49:46;;;;;;;14.35;9.05;;;;;;;;;;4807777;29;20058;-81
2023/10/01 00:52:31;;;;;;;15.98;9.20;;;;;;;;;;4805444;29;20090;-81
2023/10/01 00:55:18;;;;;;;18.55;8.45;;;;;;;;;;4807730;29;20054;-80
2023/10/01 00:58:04;;;;;;;13.10;8.70;;;;;;;;;;4807383;29;20050;-83
2023/10/01 01:00:49;;;;;;;14.82;8.70;;;;;;;;;;4806674;29;20467;-80
2023/10/01 01:03:36;;;;;;;19.02;9.18;;;;;;;;;;4808554;29;20054;-80
2023/10/01 01:06:26;;;;;;;17.90;8.98;;;;;;;;;;4807340;29;20399;-82
2023/10/01 01:09:13;;;;;;;15.40;8.25;;;;;;;;;;4807185;29;20054;-80
2023/10/01 01:11:59;;;;;;;14.93;8.27;;;;;;;;;;4812297;29;20463;-80
2023/10/01 01:14:45;;;;;;;13.48;8.27;;;;;;;;;;4811736;29;20463;-81
2023/10/01 01:17:31;;;;;;;9.93;7.50;;;;;;;;;;4806851;29;20395;-81
2023/10/01 01:20:16;;;;;;;12.98;7.82;;;;;;;;;;4806941;29;20395;-79
2023/10/01 01:23:04;;;;;;;14.25;7.55;;;;;;;;;;4799190;29;20050;-82
2023/10/01 01:25:52;;;;;;;11.40;7.25;;;;;;;;;;4807610;29;20443;-82
2023/10/01 01:28:37;;;;;;;13.27;6.95;;;;;;;;;;4811301;29;20455;-81
2023/10/01 01:31:27;;;;;;;9.57;6.55;;;;;;;;;;4806366;29;20046;-80
2023/10/01 01:34:15;;;;;;;11.48;7.03;;;;;;;;;;4810672;29;20054;-80
2023/10/01 01:37:07;;;;;;;13.65;6.63;;;;;;;;;;4806327;29;20046;-83
2023/10/01 01:39:54;;;;;;;12.88;6.65;;;;;;;;;;4806244;29;20058;-81
2023/10/01 01:42:39;;;;;;;13.23;6.70;;;;;;;;;;4810734;29;20399;-81
2023/10/01 01:45:30;;;;;;;14.95;7.55;;;;;;;;;;4808523;29;20054;-79
2023/10/01 01:48:21;;;;;;;13.23;7.25;;;;;;;;;;4807093;29;20402;-81
2023/10/01 01:51:07;;;;;;;11.60;7.00;;;;;;;;;;4806486;29;20050;-79
2023/10/01 01:53:53;;;;;;;11.00;7.03;;;;;;;;;;4798910;29;20054;-80
2023/10/01 01:56:40;;;;;;;12.13;7.00;;;;;;;;;;4805728;29;20051;-80
2023/10/01 01:59:28;;;;;;;14.68;7.38;;;;;;;;;;4810937;29;20398;-79
2023/10/01 02:02:14;;;;;;;15.40;6.72;;;;;;;;;;4809086;29;20459;-82
2023/10/01 02:04:59;;;;;;;11.85;6.85;;;;;;;;;;4808912;29;20398;-80
2023/10/01 02:07:50;;;;;;;11.82;6.97;;;;;;;;;;4808034;29;20058;-83
2023/10/01 02:10:45;;;;;;;11.77;7.25;;;;;;;;;;4811760;29;20047;-80
2023/10/01 02:13:32;;;;;;;9.38;6.45;;;;;;;;;;4811359;29;20054;-80
2023/10/01 02:16:19;;;;;;;11.30;7.20;;;;;;;;;;4810681;29;20398;-83
2023/10/01 02:19:21;;;;;;;9.57;7.07;;;;;;;;;;4805323;29;20055;-82
2023/10/01 02:22:08;;;;;;;13.52;6.85;;;;;;;;;;4810156;29;20467;-81
2023/10/01 02:24:58;;;;;;;11.68;6.70;;;;;;;;;;4804927;29;20050;-80
2023/10/01 02:28:05;;;;;;;11.95;7.30;;;;;;;;;;4806026;29;20479;-82
2023/10/01 02:30:56;;;;;;;13.98;6.97;;;;;;;;;;4804950;29;20054;-80
2023/10/01 02:34:00;;;;;;;12.95;7.35;;;;;;;;;;4805547;29;20050;-79
2023/10/01 02:36:46;;;;;;;13.75;6.78;;;;;;;;;;4805793;29;20046;-81
2023/10/01 02:39:32;;;;;;;11.32;6.72;;;;;;;;;;4810143;29;20410;-81
2023/10/01 02:42:21;;;;;;;11.27;6.88;;;;;;;;;;4810852;29;20050;-81
2023/10/01 02:45:30;;;;;;;12.55;7.13;;;;;;;;;;4805453;29;20475;-81
2023/10/01 02:48:13;;;;;;;11.90;7.28;;;;;;;;;;4797572;29;20054;-81
2023/10/01 02:51:14;;;;;;;13.60;6.53;;;;;;;;;;4805300;29;20054;-79
2023/10/01 02:54:05;;;;;;;12.55;7.28;;;;;;;;;;4804538;29;20042;-81
2023/10/01 02:57:12;;;;;;;13.70;7.07;;;;;;;;;;4806318;29;20046;-81
2023/10/01 03:03:04;;;;;;;13.43;7.00;;;;;;;;;;4808198;29;20410;-79
2023/10/01 03:05:49;;;;;;;10.52;7.05;;;;;;;;;;4811212;29;20384;-84
2023/10/01 03:08:59;;;;;;;11.20;7.03;;;;;;;;;;4813075;29;20469;-80
2023/10/01 03:11:44;;;;;;;12.65;7.68;;;;;;;;;;4805066;29;20475;-80
2023/10/01 03:14:34;;;;;;;11.27;7.25;;;;;;;;;;4809424;29;20414;-81
2023/10/01 03:17:20;;;;;;;16.58;7.80;;;;;;;;;;4805106;29;20050;-81
2023/10/01 03:26:08;;;;;;;12.13;8.02;;;;;;;;;;4810148;29;20455;-82
2023/10/01 03:29:15;;;;;;;11.32;7.78;;;;;;;;;;4805318;29;20475;-83
2023/10/01 03:32:26;;;;;;;14.73;8.52;;;;;;;;;;4804908;29;20456;-82
2023/10/01 03:35:08;;;;;;;16.48;8.13;;;;;;;;;;4793483;29;20406;-83
2023/10/01 03:38:14;;;;;;;14.68;9.02;;;;;;;;;;4805245;29;20054;-81
2023/10/01 03:41:01;;;;;;;;;;;;;;;;;;4809854;29;20206;-81
2023/10/01 03:43:56;;;;;;;13.23;8.27;;;;;;;;;;4804999;29;20337;-82
2023/10/01 03:46:47;;;;;;;16.55;9.15;;;;;;;;;;4804367;29;20042;-82
2023/10/01 03:49:44;;;;;;;14.85;9.45;;;;;;;;;;4805277;29;20046;-82
2023/10/01 03:52:29;;;;;;;16.08;9.32;;;;;;;;;;4804337;29;20058;-80
2023/10/01 03:55:26;;;;;;;15.82;9.02;;;;;;;;;;4804511;29;20047;-81
2023/10/01 03:58:18;;;;;;;13.95;9.13;;;;;;;;;;4804875;29;20066;-80
2023/10/01 04:01:25;;;;;;;16.80;8.90;;;;;;;;;;4806972;29;20038;-82
2023/10/01 04:04:11;;;;;;;12.95;8.20;;;;;;;;;;4805863;29;20491;-80
2023/10/01 04:07:10;;;;;;;14.48;9.05;;;;;;;;;;4807586;29;20418;-79
2023/10/01 04:09:54;;;;;;;14.85;9.00;;;;;;;;;;4808360;29;20046;-81
2023/10/01 04:12:44;;;;;;;16.48;8.55;;;;;;;;;;4807240;29;20054;-82
2023/10/01 04:15:29;;;;;;;15.52;9.25;;;;;;;;;;4807460;29;20120;-83
2023/10/01 04:23:49;;;;;;;11.77;8.60;;;;;;;;;;4807519;29;20063;-80
2023/10/01 04:26:35;;;;;;;15.10;8.88;;;;;;;;;;4814370;29;20046;-83
2023/10/01 04:29:24;;;;;;;20.45;8.73;;;;;;;;;;4808482;29;20050;-80
2023/10/01 04:32:12;;;;;;;19.13;9.57;;;;;;;;;;4808220;29;20050;-80
2023/10/01 04:35:11;;;;;;;16.98;8.63;;;;;;;;;;4808415;29;20046;-81
2023/10/01 04:37:56;;;;;;;15.55;8.50;;;;;;;;;;4812242;29;20402;-83
2023/10/01 04:40:46;;;;;;;15.77;9.02;;;;;;;;;;4807512;29;20054;-81
2023/10/01 04:43:42;;;;;;;17.73;8.90;;;;;;;;;;4812544;29;20054;-84
2023/10/01 04:46:29;;;;;;;19.92;8.68;;;;;;;;;;4808317;29;20475;-80
2023/10/01 04:49:27;;;;;;;17.80;9.38;;;;;;;;;;4807501;29;20042;-82
2023/10/01 04:52:13;;;;;;;19.20;9.70;;;;;;;;;;4806615;29;20054;-82
2023/10/01 04:54:58;;;;;;;16.92;10.30;;;;;;;;;;4808369;29;20459;-81
2023/10/01 04:57:45;;;;;;;18.38;10.88;;;;;;;;;;4806249;29;20406;-82
2023/10/01 05:00:30;;;;;;;16.75;9.88;;;;;;;;;;4807207;29;20455;-81
2023/10/01 05:03:16;;;;;;;17.33;9.68;;;;;;;;;;4807254;29;20050;-80
2023/10/01 05:06:02;;;;;;;16.73;10.10;;;;;;;;;;4806054;29;20046;-81
2023/10/01 05:08:53;;;;;;;18.83;11.93;;;;;;;;;;4807715;29;20455;-82
2023/10/01 05:11:39;;;;;;;26.13;15.52;;;;;;;;;;4815184;29;20054;-80
2023/10/01 05:14:24;;;;;;;17.52;9.98;;;;;;;;;;4811275;29;20050;-81
2023/10/01 05:17:09;;;;;;;19.88;10.95;;;;;;;;;;4824742;29;20054;-80
2023/10/01 05:19:55;;;;;;;22.25;11.90;;;;;;;;;;4825117;29;20046;-80
2023/10/01 05:22:51;;;;;;;18.08;11.18;;;;;;;;;;4825167;29;20050;-82
2023/10/01 05:25:36;;;;;;;25.48;15.38;;;;;;;;;;4825174;29;20470;-81
2023/10/01 05:28:31;;;;;;;65.65;39.15;;;;;;;;;;4824881;29;20050;-80
2023/10/01 05:31:24;;;;;;;48.40;32.50;;;;;;;;;;4810991;29;20402;-81
2023/10/01 05:34:11;;;;;;;31.70;20.83;;;;;;;;;;4816223;29;20062;-80
2023/10/01 05:37:08;;;;;;;36.03;20.65;;;;;;;;;;4793429;29;20047;-82
2023/10/01 05:39:57;;;;;;;24.38;16.52;;;;;;;;;;4810677;29;20407;-80
2023/10/01 05:42:47;;;;;;;26.00;16.08;;;;;;;;;;4806377;29;20058;-81
2023/10/01 05:45:39;;;;;;;29.95;16.88;;;;;;;;;;4813831;29;20046;-82
2023/10/01 05:48:25;;;;;;;35.58;18.00;;;;;;;;;;4823231;29;20413;-80
2023/10/01 05:51:14;;;;;;;30.65;15.93;;;;;;;;;;4825423;29;20068;-81
2023/10/01 05:54:00;;;;;;;23.27;13.13;;;;;;;;;;4825262;29;20389;-81
2023/10/01 05:56:48;;;;;;;24.33;13.07;;;;;;;;;;4829790;29;20049;-81
2023/10/01 05:59:33;;;;;;;29.30;14.15;;;;;;;;;;4817364;29;20474;-81
2023/10/01 06:02:40;;;;;;;23.23;12.90;;;;;;;;;;4819698;29;20061;-81
2023/10/01 06:05:42;;;;;;;22.95;10.55;;;;;;;;;;4829175;29;20050;-82
2023/10/01 06:08:44;;;;;;;21.15;10.48;;;;;;;;;;4830021;29;20402;-82
2023/10/01 06:11:38;;;;;;;22.15;10.60;;;;;;;;;;4814990;29;20061;-82
2023/10/01 06:14:39;;;;;;;26.60;11.63;;;;;;;;;;4825322;29;20050;-81
2023/10/01 06:17:28;;;;;;;24.58;11.35;;;;;;;;;;4824656;29;20451;-80
2023/10/01 06:20:23;;;;;;;29.52;14.20;;;;;;;;;;4824252;29;20394;-81
2023/10/01 06:23:09;;;;;;;;;;;;;;;;;;4824588;29;20401;-81
2023/10/01 06:25:54;;;;;;;40.30;15.57;;;;;;;;;;4824166;29;20325;-82
2023/10/01 06:28:41;;;;;;;35.63;14.50;;;;;;;;;;4823425;29;20053;-82
2023/10/01 06:31:27;;;;;;;32.42;14.38;;;;;;;;;;4823452;29;20058;-80
2023/10/01 06:34:13;;;;;;;36.55;15.13;;;;;;;;;;4823946;29;20050;-80
2023/10/01 06:37:01;;;;;;;34.83;15.25;;;;;;;;;;4823409;29;20058;-84
2023/10/01 06:39:46;;;;;;;33.47;12.75;;;;;;;;;;4822322;29;20046;-83
2023/10/01 06:42:33;;;;;;;30.25;13.05;;;;;;;;;;4816942;29;20062;-82
2023/10/01 06:45:36;;;;;;;34.40;14.60;;;;;;;;;;4809354;29;20046;-85
2023/10/01 06:48:24;;;;;;;38.95;16.65;;;;;;;;;;4811871;29;20050;-83
2023/10/01 06:51:12;;;;;;;37.85;16.13;;;;;;;;;;4815321;29;20410;-81
2023/10/01 06:54:00;;;;;;;40.55;15.80;;;;;;;;;;4822518;29;20046;-79
2023/10/01 06:56:47;;;;;;;34.72;15.10;;;;;;;;;;4823132;29;20398;-81
2023/10/01 06:59:33;;;;;;;39.22;15.93;;;;;;;;;;4823647;29;20050;-81
2023/10/01 07:02:20;;;;;;;30.63;14.20;;;;;;;;;;4823816;29;20054;-82
2023/10/01 07:05:06;;;;;;;31.75;15.32;;;;;;;;;;4823939;29;20406;-80
2023/10/01 07:07:54;;;;;;;41.92;21.52;;;;;;;;;;4825126;29;20058;-83
2023/10/01 07:10:39;;;;;;;36.72;21.15;;;;;;;;;;4830904;29;20058;-82
2023/10/01 07:13:25;;;;;;;33.30;17.50;;;;;;;;;;4829900;29;20049;-83
2023/10/01 07:16:11;;;;;;;23.67;14.88;;;;;;;;;;4822912;29;20045;-84
2023/10/01 07:18:57;;;;;;;27.35;14.45;;;;;;;;;;4815075;29;20053;-83
2023/10/01 07:21:56;;;;;;;24.67;12.90;;;;;;;;;;4833089;29;20050;-83
2023/10/01 07:24:42;;;;;;;24.45;12.27;;;;;;;;;;4828889;29;20053;-83
2023/10/01 07:27:28;;;;;;;23.88;11.38;;;;;;;;;;4838166;29;20049;-81
2023/10/01 07:30:15;;;;;;;21.30;11.45;;;;;;;;;;4822624;29;20046;-83
2023/10/01 07:33:00;;;;;;;17.45;9.98;;;;;;;;;;4822683;29;20046;-84
2023/10/01 07:35:58;;;;;;;20.30;9.80;;;;;;;;;;4822976;29;20409;-84
2023/10/01 07:38:52;;;;;;;25.65;10.82;;;;;;;;;;4828957;29;20054;-82
2023/10/01 07:41:39;;;;;;;;;;;;;;;;;;4824679;29;20474;-82
2023/10/01 07:44:24;;;;;;;17.35;9.38;;;;;;;;;;4820617;29;19924;-82
2023/10/01 07:47:28;;;;;;;17.17;9.05;;;;;;;;;;4828872;29;20049;-84
2023/10/01 07:50:12;;;;;;;19.45;10.90;;;;;;;;;;4820257;29;20430;-82
2023/10/01 07:53:04;;;;;;;23.23;10.98;;;;;;;;;;4830331;29;20046;-80
2023/10/01 07:55:48;;;;;;;20.33;11.65;;;;;;;;;;4825812;29;20049;-81
2023/10/01 07:58:56;;;;;;;20.52;11.27;;;;;;;;;;4836296;29;20041;-83
2023/10/01 08:01:43;;;;;;;16.63;9.02;;;;;;;;;;4829635;29;20406;-82
2023/10/01 08:07:39;;;;;;;19.17;9.77;;;;;;;;;;4842190;29;20470;-83
2023/10/01 08:10:29;;;;;;;18.33;9.40;;;;;;;;;;4833171;29;20045;-82
2023/10/01 08:13:24;;;;;;;19.92;9.95;;;;;;;;;;4846761;29;20050;-80
2023/10/01 08:16:13;;;;;;;18.38;9.15;;;;;;;;;;4847550;29;20050;-83
2023/10/01 08:18:58;;;;;;;16.13;8.93;;;;;;;;;;4833397;29;20404;-85
2023/10/01 08:21:48;;;;;;;20.63;9.70;;;;;;;;;;4847111;29;20046;-81
2023/10/01 08:24:33;;;;;;;18.42;9.45;;;;;;;;;;4847902;29;20050;-80
2023/10/01 08:27:31;;;;;;;22.02;10.07;;;;;;;;;;4848749;29;20054;-84
2023/10/01 08:30:20;;;;;;;20.25;10.00;;;;;;;;;;4836053;29;20061;-83
2023/10/01 08:36:13;;;;;;;17.75;10.20;;;;;;;;;;4855069;29;20470;-83
2023/10/01 08:42:11;;;;;;;18.48;7.40;;;;;;;;;;4828807;29;20054;-83
2023/10/01 08:45:11;;;;;;;11.02;6.88;;;;;;;;;;4827433;29;20419;-88
2023/10/01 08:47:59;;;;;;;13.88;7.82;;;;;;;;;;4810012;29;20042;-83
2023/10/01 08:50:45;;;;;;;12.00;7.35;;;;;;;;;;4828134;29;20041;-85
2023/10/01 08:53:36;;;;;;;16.98;7.97;;;;;;;;;;4822521;29;20038;-84
2023/10/01 08:56:33;;;;;;;16.20;7.95;;;;;;;;;;4816581;29;20046;-84
2023/10/01 08:59:26;;;;;;;12.20;6.35;;;;;;;;;;4824048;29;20459;-83
2023/10/01 09:02:15;;;;;;;17.33;7.63;;;;;;;;;;4814710;29;20490;-86
2023/10/01 09:05:07;;;;;;;13.30;5.90;;;;;;;;;;4824555;29;20374;-87
2023/10/01 09:08:15;;;;;;;13.23;6.72;;;;;;;;;;4822853;29;20050;-84
2023/10/01 09:11:10;;;;;;;13.45;7.63;;;;;;;;;;4817113;29;20069;-85
2023/10/01 09:14:15;;;;;;;16.17;8.65;;;;;;;;;;4812426;29;20049;-84
2023/10/01 09:17:24;;;;;;;17.73;7.47;;;;;;;;;;4825597;29;20458;-84
2023/10/01 09:20:10;;;;;;;11.82;6.05;;;;;;;;;;4818673;29;20470;-82
2023/10/01 09:23:00;;;;;;;13.20;6.70;;;;;;;;;;4825506;29;20402;-85
2023/10/01 09:25:59;;;;;;;13.43;7.18;;;;;;;;;;4816108;29;20470;-83
2023/10/01 09:28:47;;;;;;;16.50;7.28;;;;;;;;;;4806453;29;20455;-84
2023/10/01 09:31:52;;;;;;;19.05;7.20;;;;;;;;;;4786888;29;20054;-83
2023/10/01 09:34:47;;;;;;;13.55;7.18;;;;;;;;;;4794499;29;20451;-85
2023/10/01 09:37:41;;;;;;;13.82;7.20;;;;;;;;;;4800835;29;20076;-87
2023/10/01 09:40:32;;;;;;;13.80;6.63;;;;;;;;;;4800080;29;20058;-85
2023/10/01 09:43:18;;;;;;;12.05;6.93;;;;;;;;;;4799347;29;20058;-83
2023/10/01 09:46:06;;;;;;;14.73;7.72;;;;;;;;;;4816476;29;20054;-86
2023/10/01 09:49:00;;;;;;;12.55;6.65;;;;;;;;;;4820667;29;20368;-84
2023/10/01 09:51:52;;;;;;;12.15;7.15;;;;;;;;;;4805166;29;20050;-83
2023/10/01 09:54:48;;;;;;;14.90;7.00;;;;;;;;;;4810485;29;20490;-83
2023/10/01 09:57:34;;;;;;;16.20;9.38;;;;;;;;;;4821397;29;20049;-85
2023/10/01 10:00:39;;;;;;;14.20;7.70;;;;;;;;;;4826698;29;20066;-83
2023/10/01 10:03:25;;;;;;;11.65;7.70;;;;;;;;;;4810879;29;20050;-82
2023/10/01 10:06:11;;;;;;;14.80;7.80;;;;;;;;;;4826568;29;20502;-84
2023/10/01 10:09:03;;;;;;;13.77;6.57;;;;;;;;;;4806518;29;20054;-86
2023/10/01 10:11:48;;;;;;;15.45;7.50;;;;;;;;;;4812631;29;20046;-86
2023/10/01 10:14:34;;;;;;;14.90;8.18;;;;;;;;;;4807338;29;20046;-84
2023/10/01 10:17:25;;;;;;;13.63;6.78;;;;;;;;;;4819988;29;20050;-86
2023/10/01 10:20:26;;;;;;;13.18;6.80;;;;;;;;;;4818593;29;20462;-84
2023/10/01 10:23:13;;;;;;;10.88;5.88;;;;;;;;;;4806911;29;20066;-86
2023/10/01 10:26:12;;;;;;;13.18;7.18;;;;;;;;;;4803784;29;20042;-83
2023/10/01 10:28:57;;;;;;;13.63;8.45;;;;;;;;;;4817767;29;20451;-84
2023/10/01 10:31:44;;;;;;;11.80;7.65;;;;;;;;;;4803906;29;20050;-83
2023/10/01 10:34:36;;;;;;;22.45;10.98;;;;;;;;;;4803395;29;20053;-84
2023/10/01 10:37:53;;;;;;;15.48;9.15;;;;;;;;;;4816670;29;20498;-84
2023/10/01 10:41:07;;;;;;;12.00;7.40;;;;;;;;;;4804237;29;20053;-85
2023/10/01 10:44:08;;;;;;;12.77;8.32;;;;;;;;;;4815960;29;20058;-88
2023/10/01 10:47:04;;;;;;;15.45;8.48;;;;;;;;;;4815520;29;20050;-81
2023/10/01 10:49:53;;;;;;;13.18;7.88;;;;;;;;;;4803975;29;20058;-85
2023/10/01 10:52:39;;;;;;;15.20;7.72;;;;;;;;;;4803294;29;20402;-82
2023/10/01 10:55:36;;;;;;;13.73;7.90;;;;;;;;;;4803036;29;20058;-86
2023/10/01 10:58:28;;;;;;;13.52;8.55;;;;;;;;;;4816411;29;20038;-82
2023/10/01 11:01:19;;;;;;;13.32;7.72;;;;;;;;;;4802563;29;20401;-80
2023/10/01 11:04:04;;;;;;;15.38;7.82;;;;;;;;;;4810959;29;20366;-82
2023/10/01 11:07:01;;;;;;;13.95;7.53;;;;;;;;;;4825835;29;20425;-85
2023/10/01 11:09:53;;;;;;;15.45;7.80;;;;;;;;;;4817697;29;20402;-82
2023/10/01 11:12:46;;;;;;;13.88;7.32;;;;;;;;;;4826150;29;20050;-83
2023/10/01 11:15:39;;;;;;;10.00;6.72;;;;;;;;;;4824384;29;20058;-83
2023/10/01 11:18:25;;;;;;;14.93;8.00;;;;;;;;;;4810788;29;20054;-84
2023/10/01 11:21:20;;;;;;;20.50;8.02;;;;;;;;;;4817032;29;20049;-84
2023/10/01 11:24:06;;;;;;;13.38;7.32;;;;;;;;;;4824684;29;20057;-87
2023/10/01 11:27:20;;;;;;;13.02;7.30;;;;;;;;;;4802963;29;20046;-85
2023/10/01 11:30:24;;;;;;;16.08;9.38;;;;;;;;;;4823641;29;20386;-85
2023/10/01 11:36:09;;;;;;;11.68;7.18;;;;;;;;;;4815028;29;20061;-85
2023/10/01 11:38:55;;;;;;;17.98;9.05;;;;;;;;;;4802162;29;20054;-83
2023/10/01 11:41:42;;;;;;;12.52;7.20;;;;;;;;;;4809559;29;20177;-85
2023/10/01 11:44:35;;;;;;;14.85;6.72;;;;;;;;;;4822958;29;20058;-84
2023/10/01 11:47:34;;;;;;;13.35;6.10;;;;;;;;;;4823438;29;20046;-84
2023/10/01 11:50:23;;;;;;;13.27;6.38;;;;;;;;;;4815146;29;20398;-82
2023/10/01 11:53:10;;;;;;;12.45;6.45;;;;;;;;;;4809195;29;20046;-83
2023/10/01 11:56:01;;;;;;;8.73;5.68;;;;;;;;;;4822948;29;20470;-87
2023/10/01 11:58:46;;;;;;;10.50;5.70;;;;;;;;;;4814852;29;20045;-86
2023/10/01 12:01:39;;;;;;;9.25;5.35;;;;;;;;;;4809639;29;20488;-84
2023/10/01 12:04:43;;;;;;;10.50;6.07;;;;;;;;;;4795587;29;20058;-85
2023/10/01 12:07:39;;;;;;;10.90;6.07;;;;;;;;;;4823690;29;20394;-85
2023/10/01 12:10:36;;;;;;;11.68;7.00;;;;;;;;;;4816149;29;20050;-83
2023/10/01 12:13:22;;;;;;;21.17;7.00;;;;;;;;;;4817354;29;20049;-83
2023/10/01 12:16:10;;;;;;;9.52;6.07;;;;;;;;;;4825395;29;20057;-82
2023/10/01 12:19:17;;;;;;;9.93;6.13;;;;;;;;;;4805110;29;20405;-84
2023/10/01 12:22:06;;;;;;;;;;;;;;;;;;4826553;29;20402;-84
2023/10/01 12:24:59;;;;;;;13.93;6.45;;;;;;;;;;4826139;29;19920;-83
2023/10/01 12:27:45;;;;;;;11.60;6.30;;;;;;;;;;4809129;29;20390;-84
2023/10/01 12:30:31;;;;;;;7.82;5.47;;;;;;;;;;4828916;29;20050;-85
2023/10/01 12:33:21;;;;;;;12.55;4.70;;;;;;;;;;4818401;29;20054;-84
2023/10/01 12:44:43;;;;;;;11.43;6.10;;;;;;;;;;4818444;29;20494;-84
2023/10/01 12:47:40;;;;;;;9.40;5.40;;;;;;;;;;4817859;29;20054;-84
2023/10/01 12:50:28;;;;;;;9.27;6.15;;;;;;;;;;4804976;29;20406;-83
2023/10/01 12:53:22;;;;;;;13.20;6.80;;;;;;;;;;4817350;29;20413;-83
2023/10/01 12:56:09;;;;;;;14.63;6.45;;;;;;;;;;4818213;29;20394;-83
2023/10/01 12:58:56;;;;;;;9.93;6.65;;;;;;;;;;4811547;29;20045;-83
2023/10/01 13:01:42;;;;;;;9.57;6.82;;;;;;;;;;4812335;29;20169;-83
2023/10/01 13:04:32;;;;;;;12.45;7.50;;;;;;;;;;4811162;29;20054;-84
2023/10/01 13:07:35;;;;;;;12.10;5.78;;;;;;;;;;4811979;29;20049;-82
2023/10/01 13:10:34;;;;;;;13.43;6.97;;;;;;;;;;4813679;29;20462;-84
2023/10/01 13:13:20;;;;;;;9.18;6.20;;;;;;;;;;4825609;29;20046;-84
2023/10/01 13:16:16;;;;;;;16.55;8.10;;;;;;;;;;4811676;29;20459;-86
2023/10/01 13:19:01;;;;;;;15.48;7.53;;;;;;;;;;4812007;29;20054;-82
2023/10/01 13:21:47;;;;;;;13.20;7.28;;;;;;;;;;4812290;29;20398;-81
2023/10/01 13:24:33;;;;;;;12.38;6.97;;;;;;;;;;4824435;29;20053;-84
2023/10/01 13:27:19;;;;;;;10.32;5.65;;;;;;;;;;4804587;29;20050;-83
2023/10/01 13:30:22;;;;;;;13.07;7.15;;;;;;;;;;4824171;29;20054;-84
2023/10/01 13:33:10;;;;;;;10.20;6.82;;;;;;;;;;4823937;29;20046;-82
2023/10/01 13:36:12;;;;;;;11.30;6.32;;;;;;;;;;4816837;29;20394;-84
2023/10/01 13:39:13;;;;;;;14.10;6.22;;;;;;;;;;4809285;29;20046;-81
2023/10/01 14:09:47;;;;;;;11.70;7.13;;;;;;;;;;4824035;29;20402;-83
2023/10/01 14:12:42;;;;;;;8.80;5.15;;;;;;;;;;4798790;29;20042;-82
2023/10/01 14:15:29;;;;;;;11.95;6.65;;;;;;;;;;4797515;29;20402;-85
2023/10/01 14:18:34;;;;;;;8.98;5.57;;;;;;;;;;4806642;29;20058;-85
2023/10/01 14:21:27;;;;;;;9.02;6.25;;;;;;;;;;4800228;29;20402;-85
2023/10/01 14:24:21;;;;;;;12.70;7.20;;;;;;;;;;4798720;29;20054;-84
2023/10/01 14:27:07;;;;;;;14.13;7.32;;;;;;;;;;4798117;29;20062;-87
2023/10/01 14:30:24;;;;;;;9.93;7.20;;;;;;;;;;4813169;29;20050;-87
2023/10/01 14:32:59;;;;;;;12.43;7.78;;;;;;;;;;4820735;29;20049;-84
2023/10/01 14:35:48;;;;;;;12.20;6.55;;;;;;;;;;4800652;29;20054;-81
2023/10/01 14:38:43;;;;;;;12.95;6.85;;;;;;;;;;4822897;29;20050;-85
2023/10/01 14:41:31;;;;;;;12.65;7.82;;;;;;;;;;4812100;29;20046;-89
2023/10/01 14:44:24;;;;;;;10.73;6.82;;;;;;;;;;4785689;29;20050;-83
2023/10/01 14:47:17;;;;;;;12.63;7.47;;;;;;;;;;4810203;29;20050;-83
2023/10/01 14:50:04;;;;;;;13.40;7.75;;;;;;;;;;4796336;29;20410;-85
2023/10/01 14:52:50;;;;;;;14.57;8.35;;;;;;;;;;4810319;29;20394;-85
2023/10/01 14:55:42;;;;;;;11.85;7.55;;;;;;;;;;4805334;29;20046;-84
2023/10/01 14:58:29;;;;;;;13.18;8.10;;;;;;;;;;4797550;29;20042;-85
2023/10/01 15:01:14;;;;;;;12.30;7.63;;;;;;;;;;4798471;29;20049;-82
2023/10/01 15:03:59;;;;;;;17.20;10.43;;;;;;;;;;4808212;29;20410;-86
2023/10/01 15:06:57;;;;;;;16.58;9.93;;;;;;;;;;4807314;29;20050;-85
2023/10/01 15:09:42;;;;;;;19.55;12.27;;;;;;;;;;4806412;29;20050;-83
2023/10/01 15:12:27;;;;;;;11.82;7.88;;;;;;;;;;4804784;29;20046;-84
2023/10/01 15:15:18;;;;;;;17.73;9.27;;;;;;;;;;4810999;29;20054;-86
2023/10/01 15:18:04;;;;;;;12.38;8.00;;;;;;;;;;4785402;29;20070;-85
2023/10/01 15:20:51;;;;;;;14.45;7.60;;;;;;;;;;4804542;29;20054;-84
2023/10/01 15:23:44;;;;;;;12.18;7.65;;;;;;;;;;4806739;29;20058;-84
2023/10/01 15:26:30;;;;;;;12.18;7.35;;;;;;;;;;4805951;29;20058;-84
2023/10/01 15:29:15;;;;;;;18.77;10.68;;;;;;;;;;4805620;29;20050;-85
2023/10/01 15:32:01;;;;;;;23.30;11.80;;;;;;;;;;4811237;29;20050;-83
2023/10/01 15:34:46;;;;;;;16.08;9.60;;;;;;;;;;4813439;29;20038;-85
2023/10/01 15:37:31;;;;;;;15.52;9.65;;;;;;;;;;4805837;29;20315;-83
2023/10/01 15:40:35;;;;;;;15.48;8.15;;;;;;;;;;4806365;29;20440;-84
2023/10/01 15:43:23;;;;;;;14.45;7.53;;;;;;;;;;4808221;29;20043;-82
2023/10/01 15:46:14;;;;;;;11.48;7.72;;;;;;;;;;4806448;29;20042;-83
2023/10/01 15:49:03;;;;;;;16.88;8.82;;;;;;;;;;4798817;29;20402;-81
2023/10/01 15:51:49;;;;;;;17.55;9.98;;;;;;;;;;4806808;29;20055;-82
2023/10/01 15:54:34;;;;;;;37.10;15.10;;;;;;;;;;4806678;29;20054;-82
2023/10/01 15:57:19;;;;;;;19.92;10.15;;;;;;;;;;4811326;29;20055;-83
2023/10/01 16:03:11;;;;;;;12.57;7.75;;;;;;;;;;4809393;29;20382;-82
2023/10/01 16:06:08;;;;;;;12.13;7.38;;;;;;;;;;4809269;29;20478;-86
2023/10/01 16:08:58;;;;;;;17.63;11.23;;;;;;;;;;4810354;29;20054;-83
2023/10/01 16:11:53;;;;;;;12.45;8.00;;;;;;;;;;4808316;29;20058;-83
2023/10/01 16:14:43;;;;;;;22.30;12.57;;;;;;;;;;4808129;29;20050;-83
2023/10/01 16:17:31;;;;;;;19.00;10.82;;;;;;;;;;4813492;29;20414;-87
2023/10/01 16:20:18;;;;;;;16.92;9.80;;;;;;;;;;4807281;29;20047;-83
2023/10/01 16:23:14;;;;;;;14.25;8.70;;;;;;;;;;4807315;29;20394;-83
2023/10/01 16:25:59;;;;;;;17.75;11.45;;;;;;;;;;4810670;29;20050;-82
2023/10/01 16:28:46;;;;;;;26.52;14.13;;;;;;;;;;4808238;29;20411;-81
2023/10/01 16:31:31;;;;;;;30.98;15.10;;;;;;;;;;4808712;29;20069;-82
2023/10/01 16:34:17;;;;;;;28.27;15.05;;;;;;;;;;4808257;29;20398;-83
2023/10/01 16:37:03;;;;;;;25.80;13.88;;;;;;;;;;4806994;29;20410;-83
2023/10/01 16:39:48;;;;;;;22.80;13.10;;;;;;;;;;4807333;29;20458;-86
2023/10/01 16:42:44;;;;;;;22.33;13.48;;;;;;;;;;4807072;29;20055;-82
2023/10/01 16:45:31;;;;;;;28.25;12.27;;;;;;;;;;4813131;29;20054;-84
2023/10/01 16:48:29;;;;;;;22.77;11.85;;;;;;;;;;4806739;29;20047;-83
2023/10/01 16:54:13;;;;;;;23.92;12.10;;;;;;;;;;4816426;29;20046;-80
2023/10/01 16:56:59;;;;;;;18.58;11.88;;;;;;;;;;4818837;29;20463;-79
2023/10/01 16:59:49;;;;;;;23.08;12.27;;;;;;;;;;4807172;29;20395;-80
2023/10/01 17:02:37;;;;;;;21.63;11.52;;;;;;;;;;4806564;29;20427;-81
2023/10/01 17:05:22;;;;;;;44.65;22.77;;;;;;;;;;4807082;29;20410;-82
2023/10/01 17:08:14;;;;;;;30.98;16.27;;;;;;;;;;4807087;29;20054;-80
2023/10/01 17:11:00;;;;;;;26.17;14.73;;;;;;;;;;4807292;29;20042;-80
2023/10/01 17:13:46;;;;;;;29.65;16.00;;;;;;;;;;4819914;29;20054;-79
2023/10/01 17:16:31;;;;;;;31.83;17.63;;;;;;;;;;4824051;29;20426;-79
2023/10/01 17:19:28;;;;;;;36.60;20.17;;;;;;;;;;4822508;29;20042;-81
2023/10/01 17:22:15;;;;;;;37.33;20.92;;;;;;;;;;4820350;29;20482;-84
2023/10/01 17:25:13;;;;;;;42.45;23.30;;;;;;;;;;4812844;29;20058;-81
2023/10/01 17:28:00;;;;;;;52.47;23.75;;;;;;;;;;4820908;29;20470;-82
2023/10/01 17:30:45;;;;;;;46.53;22.42;;;;;;;;;;4830599;29;20050;-82
2023/10/01 17:33:31;;;;;;;41.45;19.83;;;;;;;;;;4825454;29;20455;-80
2023/10/01 17:36:17;;;;;;;34.85;18.13;;;;;;;;;;4824939;29;20426;-79
2023/10/01 17:39:19;;;;;;;30.33;16.58;;;;;;;;;;4831304;29;20050;-81
2023/10/01 17:42:06;;;;;;;25.42;15.40;;;;;;;;;;4819097;29;20050;-82
2023/10/01 17:44:55;;;;;;;30.33;17.92;;;;;;;;;;4806807;29;20054;-79
2023/10/01 17:47:44;;;;;;;47.20;24.38;;;;;;;;;;4806856;29;20046;-81
2023/10/01 17:50:31;;;;;;;37.40;22.55;;;;;;;;;;4805414;29;20454;-80
2023/10/01 17:53:20;;;;;;;52.60;27.45;;;;;;;;;;4806210;29;20467;-80
2023/10/01 17:56:19;;;;;;;55.42;27.30;;;;;;;;;;4806127;29;20398;-83